createdAt,value
2023-05-07T00:00:20.317Z,14.39
2023-05-07T00:02:47.424Z,14.34
2023-05-07T00:05:14.794Z,14.29
2023-05-07T00:07:41.588Z,14.22
2023-05-07T00:10:08.818Z,14.16
2023-05-07T00:12:35.684Z,14.12
2023-05-07T00:15:05.973Z,14.08
2023-05-07T00:17:33.990Z,14.02
2023-05-07T00:20:00.754Z,13.95
2023-05-07T00:22:27.301Z,13.91
2023-05-07T00:24:53.933Z,13.89
2023-05-07T00:27:20.420Z,13.86
2023-05-07T00:29:46.967Z,13.82
2023-05-07T00:32:13.638Z,13.84
2023-05-07T00:34:40.580Z,13.83
2023-05-07T00:37:08.424Z,13.80
2023-05-07T00:39:36.135Z,13.79
2023-05-07T00:42:03.779Z,13.78
2023-05-07T00:44:30.663Z,13.75
2023-05-07T00:46:58.782Z,13.72
2023-05-07T00:49:36.609Z,13.71
2023-05-07T00:52:03.106Z,13.67
2023-05-07T00:54:29.631Z,13.61
2023-05-07T00:56:56.188Z,13.54
2023-05-07T00:59:23.005Z,13.49
2023-05-07T01:01:49.743Z,13.45
2023-05-07T01:04:16.510Z,13.40
2023-05-07T01:06:45.571Z,13.35
2023-05-07T01:09:14.021Z,13.33
2023-05-07T01:11:41.422Z,13.34
2023-05-07T01:14:09.744Z,13.31
2023-05-07T01:16:37.611Z,13.30
2023-05-07T01:19:04.465Z,13.29
2023-05-07T01:21:33.933Z,13.30
2023-05-07T01:24:00.832Z,13.29
2023-05-07T01:26:27.766Z,13.27
2023-05-07T01:28:54.362Z,13.21
2023-05-07T01:31:21.483Z,13.23
2023-05-07T01:33:50.969Z,13.26
2023-05-07T01:36:19.670Z,13.28
2023-05-07T01:38:47.038Z,13.31
2023-05-07T01:41:14.150Z,13.32
2023-05-07T01:43:42.868Z,13.32
2023-05-07T01:46:11.348Z,13.31
2023-05-07T01:48:38.671Z,13.24
2023-05-07T01:51:05.759Z,13.20
2023-05-07T01:53:37.691Z,13.17
2023-05-07T01:56:04.669Z,13.14
2023-05-07T01:58:31.240Z,13.11
2023-05-07T02:00:57.707Z,13.06
2023-05-07T02:03:24.472Z,13.01
2023-05-07T02:05:59.678Z,12.95
2023-05-07T02:08:33.284Z,12.92
2023-05-07T02:11:00.226Z,12.88
2023-05-07T02:13:30.433Z,12.89
2023-05-07T02:15:57.485Z,12.90
2023-05-07T02:18:24.993Z,12.88
2023-05-07T02:20:51.483Z,12.88
2023-05-07T02:23:18.244Z,12.83
2023-05-07T02:25:45.139Z,12.78
2023-05-07T02:28:11.700Z,12.74
2023-05-07T02:30:44.986Z,12.71
2023-05-07T02:33:13.557Z,12.70
2023-05-07T02:35:40.391Z,12.72
2023-05-07T02:38:07.208Z,12.77
2023-05-07T02:40:35.827Z,12.80
2023-05-07T02:43:02.606Z,12.81
2023-05-07T02:45:29.183Z,12.81
2023-05-07T02:47:56.091Z,12.80
2023-05-07T02:50:22.610Z,12.73
2023-05-07T02:52:49.316Z,12.70
2023-05-07T02:55:15.870Z,12.71
2023-05-07T02:57:42.305Z,12.69
2023-05-07T03:00:17.172Z,12.72
2023-05-07T03:02:51.471Z,12.76
2023-05-07T03:05:18.185Z,12.79
2023-05-07T03:07:47.091Z,12.86
2023-05-07T03:10:14.232Z,12.92
2023-05-07T03:12:41.023Z,12.97
2023-05-07T03:15:10.036Z,12.98
2023-05-07T03:17:36.855Z,12.97
2023-05-07T03:20:03.764Z,12.91
2023-05-07T03:22:30.604Z,12.86
2023-05-07T03:24:57.240Z,12.80
2023-05-07T03:27:23.700Z,12.75
2023-05-07T03:29:52.462Z,12.70
2023-05-07T03:32:20.445Z,12.67
2023-05-07T03:34:47.003Z,12.67
2023-05-07T03:37:14.085Z,12.65
2023-05-07T03:39:41.799Z,12.65
2023-05-07T03:42:08.858Z,12.64
2023-05-07T03:44:37.120Z,12.66
2023-05-07T03:47:04.570Z,12.66
2023-05-07T03:49:31.941Z,12.65
2023-05-07T03:51:58.490Z,12.63
2023-05-07T03:54:25.026Z,12.63
2023-05-07T03:56:51.502Z,12.60
2023-05-07T03:59:17.942Z,12.61
2023-05-07T04:01:46.919Z,12.62
2023-05-07T04:04:17.188Z,12.62
2023-05-07T04:06:43.806Z,12.59
2023-05-07T04:09:11.137Z,12.57
2023-05-07T04:11:41.055Z,12.55
2023-05-07T04:14:09.596Z,12.53
2023-05-07T04:16:36.490Z,12.50
2023-05-07T04:19:03.510Z,12.56
2023-05-07T04:21:31.073Z,12.59
2023-05-07T04:23:58.633Z,12.63
2023-05-07T04:26:25.400Z,12.69
2023-05-07T04:28:52.018Z,12.78
2023-05-07T04:31:18.664Z,12.83
2023-05-07T04:33:49.317Z,12.89
2023-05-07T04:36:16.050Z,12.94
2023-05-07T04:38:49.366Z,12.96
2023-05-07T04:41:18.557Z,12.96
2023-05-07T04:43:45.605Z,13.00
2023-05-07T04:46:14.441Z,13.08
2023-05-07T04:48:41.689Z,13.12
2023-05-07T04:51:08.420Z,13.15
2023-05-07T04:53:34.972Z,13.18
2023-05-07T04:56:01.857Z,13.24
2023-05-07T04:58:38.024Z,13.32
2023-05-07T05:01:05.761Z,13.37
2023-05-07T05:03:32.279Z,13.43
2023-05-07T05:06:00.784Z,13.41
2023-05-07T05:08:31.592Z,13.58
2023-05-07T05:10:58.289Z,13.68
2023-05-07T05:13:25.271Z,13.79
2023-05-07T05:15:52.333Z,13.85
2023-05-07T05:18:19.323Z,13.89
2023-05-07T05:20:45.952Z,13.96
2023-05-07T05:23:13.014Z,14.07
2023-05-07T05:25:41.265Z,14.15
2023-05-07T05:28:10.349Z,14.22
2023-05-07T05:30:37.299Z,14.25
2023-05-07T05:33:03.877Z,14.28
2023-05-07T05:35:30.740Z,14.35
2023-05-07T05:37:58.203Z,14.44
2023-05-07T05:40:24.771Z,14.53
2023-05-07T05:42:51.491Z,14.61
2023-05-07T05:45:18.817Z,14.68
2023-05-07T05:47:45.930Z,14.78
2023-05-07T05:52:41.743Z,14.95
2023-05-07T05:55:08.945Z,14.95
2023-05-07T05:57:36.940Z,15.02
2023-05-07T06:00:04.044Z,15.08
2023-05-07T06:02:33.293Z,15.10
2023-05-07T06:05:00.499Z,15.11
2023-05-07T06:07:27.105Z,15.18
2023-05-07T06:09:53.665Z,15.23
2023-05-07T06:12:21.861Z,15.28
2023-05-07T06:14:48.928Z,15.33
2023-05-07T06:17:19.380Z,15.38
2023-05-07T06:19:47.827Z,15.36
2023-05-07T06:22:16.656Z,15.49
2023-05-07T06:24:43.717Z,15.51
2023-05-07T06:27:10.471Z,15.60
2023-05-07T06:29:37.912Z,15.71
2023-05-07T06:32:12.648Z,15.85
2023-05-07T06:34:41.467Z,15.93
2023-05-07T06:37:08.276Z,16.04
2023-05-07T06:39:48.639Z,16.18
2023-05-07T06:42:15.156Z,16.24
2023-05-07T06:44:43.739Z,16.30
2023-05-07T06:47:15.668Z,16.39
2023-05-07T06:49:43.976Z,16.45
2023-05-07T06:52:12.613Z,16.58
2023-05-07T06:54:39.218Z,16.68
2023-05-07T06:57:05.738Z,16.79
2023-05-07T06:59:32.656Z,16.91
2023-05-07T07:01:59.771Z,16.99
2023-05-07T07:04:27.119Z,17.02
2023-05-07T07:07:00.864Z,17.10
2023-05-07T07:09:28.413Z,17.16
2023-05-07T07:11:55.514Z,17.28
2023-05-07T07:14:22.407Z,17.40
2023-05-07T07:16:51.815Z,17.49
2023-05-07T07:19:21.320Z,17.53
2023-05-07T07:21:50.516Z,17.56
2023-05-07T07:24:21.920Z,17.62
2023-05-07T07:26:51.495Z,17.73
2023-05-07T07:29:19.617Z,17.84
2023-05-07T07:31:48.995Z,17.99
2023-05-07T07:34:17.665Z,18.19
2023-05-07T07:36:46.752Z,18.34
2023-05-07T07:39:16.924Z,18.52
2023-05-07T07:41:44.468Z,18.64
2023-05-07T07:44:15.974Z,18.75
2023-05-07T07:46:46.198Z,18.75
2023-05-07T07:49:12.858Z,18.78
2023-05-07T07:51:39.651Z,18.81
2023-05-07T07:54:06.391Z,18.74
2023-05-07T07:56:35.120Z,18.68
2023-05-07T07:59:03.268Z,18.65
2023-05-07T08:01:31.421Z,18.73
2023-05-07T08:04:04.176Z,18.78
2023-05-07T08:06:32.975Z,18.80
2023-05-07T08:08:59.654Z,18.89
2023-05-07T08:11:26.366Z,18.97
2023-05-07T08:13:55.363Z,19.04
2023-05-07T08:16:23.520Z,19.07
2023-05-07T08:18:52.125Z,19.07
2023-05-07T08:21:18.630Z,19.12
2023-05-07T08:23:45.072Z,19.19
2023-05-07T08:26:12.631Z,19.23
2023-05-07T08:28:40.503Z,19.32
2023-05-07T08:31:08.024Z,19.35
2023-05-07T08:33:38.102Z,19.43
2023-05-07T08:36:05.000Z,19.55
2023-05-07T08:38:32.555Z,19.67
2023-05-07T08:40:59.086Z,19.79
2023-05-07T08:43:28.864Z,19.84
2023-05-07T08:45:58.062Z,19.94
2023-05-07T08:48:29.721Z,20.05
2023-05-07T08:51:04.707Z,20.21
2023-05-07T08:53:32.101Z,20.38
2023-05-07T08:55:59.647Z,20.49
2023-05-07T08:58:26.483Z,20.59
2023-05-07T09:00:54.589Z,20.67
2023-05-07T09:03:22.019Z,20.77
2023-05-07T09:05:51.685Z,20.75
2023-05-07T09:08:26.037Z,20.71
2023-05-07T09:10:53.186Z,20.81
2023-05-07T09:13:20.217Z,20.86
2023-05-07T09:15:47.011Z,20.97
2023-05-07T09:18:16.700Z,21.14
2023-05-07T09:20:45.302Z,21.30
2023-05-07T09:23:11.931Z,21.34
2023-05-07T09:25:38.793Z,21.39
2023-05-07T09:28:12.564Z,21.44
2023-05-07T09:30:39.278Z,21.44
2023-05-07T09:33:09.030Z,21.36
2023-05-07T09:35:39.134Z,21.31
2023-05-07T09:38:10.612Z,21.37
2023-05-07T09:40:37.781Z,21.46
2023-05-07T09:43:14.113Z,21.63
2023-05-07T09:45:52.367Z,21.81
2023-05-07T09:48:21.440Z,21.84
2023-05-07T09:50:53.959Z,21.87
2023-05-07T09:53:24.707Z,21.98
2023-05-07T09:55:52.885Z,22.04
2023-05-07T09:58:23.907Z,22.13
2023-05-07T10:00:52.313Z,22.33
2023-05-07T10:03:21.274Z,22.46
2023-05-07T10:05:57.317Z,22.57
2023-05-07T10:08:24.570Z,22.69
2023-05-07T10:10:54.616Z,22.72
2023-05-07T10:13:25.401Z,22.76
2023-05-07T10:15:56.450Z,22.68
2023-05-07T10:18:30.818Z,22.62
2023-05-07T10:21:09.558Z,22.67
2023-05-07T10:23:36.709Z,22.77
2023-05-07T10:26:06.478Z,22.95
2023-05-07T10:28:39.353Z,23.07
2023-05-07T10:31:26.531Z,23.26
2023-05-07T10:33:56.319Z,23.40
2023-05-07T10:36:24.754Z,23.41
2023-05-07T10:38:53.398Z,23.39
2023-05-07T10:41:22.122Z,23.59
2023-05-07T10:43:49.735Z,23.74
2023-05-07T10:46:24.708Z,23.82
2023-05-07T10:49:01.574Z,23.91
2023-05-07T10:51:35.565Z,24.01
2023-05-07T10:54:12.849Z,24.13
2023-05-07T10:56:48.755Z,24.28
2023-05-07T10:59:31.483Z,24.48
2023-05-07T11:02:05.072Z,24.62
2023-05-07T11:05:23.530Z,24.67
2023-05-07T11:08:10.198Z,24.70
2023-05-07T11:10:59.401Z,24.71
2023-05-07T11:13:50.283Z,24.72
2023-05-07T11:16:42.584Z,24.81
2023-05-07T11:19:52.296Z,24.83
2023-05-07T11:22:32.516Z,24.84
2023-05-07T11:25:28.224Z,24.88
2023-05-07T11:28:11.381Z,24.97
2023-05-07T11:30:43.807Z,25.03
2023-05-07T11:33:13.500Z,24.99
2023-05-07T11:35:43.542Z,25.04
2023-05-07T11:38:14.014Z,25.18
2023-05-07T11:40:52.453Z,25.33
2023-05-07T11:43:19.142Z,25.49
2023-05-07T11:45:49.373Z,25.51
2023-05-07T11:48:17.095Z,25.44
2023-05-07T11:50:54.507Z,25.27
2023-05-07T11:53:25.238Z,25.20
2023-05-07T11:55:56.601Z,25.05
2023-05-07T11:58:25.385Z,24.94
2023-05-07T12:00:55.257Z,25.08
2023-05-07T12:03:22.148Z,25.31
2023-05-07T12:05:48.858Z,25.41
2023-05-07T12:08:19.919Z,25.44
2023-05-07T12:10:49.136Z,25.49
2023-05-07T12:13:16.960Z,25.52
2023-05-07T12:15:44.202Z,25.36
2023-05-07T12:18:12.562Z,25.15
2023-05-07T12:20:40.255Z,24.99
2023-05-07T12:23:06.867Z,24.92
2023-05-07T12:25:37.539Z,24.78
2023-05-07T12:28:06.040Z,24.61
2023-05-07T12:30:37.649Z,24.48
2023-05-07T12:33:04.168Z,24.33
2023-05-07T12:35:31.527Z,24.16
2023-05-07T12:38:00.824Z,24.05
2023-05-07T12:40:41.316Z,23.93
2023-05-07T12:43:08.254Z,23.83
2023-05-07T12:45:42.216Z,23.73
2023-05-07T12:48:11.238Z,23.66
2023-05-07T12:50:37.938Z,23.54
2023-05-07T12:53:08.938Z,23.44
2023-05-07T12:55:43.944Z,23.34
2023-05-07T12:58:17.087Z,23.30
2023-05-07T13:00:44.507Z,23.18
2023-05-07T13:03:11.995Z,23.05
2023-05-07T13:05:38.631Z,22.97
2023-05-07T13:08:05.191Z,22.87
2023-05-07T13:10:31.631Z,22.77
2023-05-07T13:12:58.073Z,22.69
2023-05-07T13:15:24.676Z,22.64
2023-05-07T13:17:51.335Z,22.58
2023-05-07T13:20:18.065Z,22.55
2023-05-07T13:22:44.522Z,22.52
2023-05-07T13:25:11.193Z,22.42
2023-05-07T13:27:38.027Z,22.36
2023-05-07T13:30:05.827Z,22.25
2023-05-07T13:32:32.617Z,22.15
2023-05-07T13:34:59.443Z,22.04
2023-05-07T13:37:26.065Z,21.98
2023-05-07T13:39:52.530Z,21.90
2023-05-07T13:42:18.947Z,21.81
2023-05-07T13:44:45.362Z,21.75
2023-05-07T13:47:12.155Z,21.68
2023-05-07T13:49:38.571Z,21.66
2023-05-07T13:52:05.300Z,21.61
2023-05-07T13:54:31.708Z,21.58
2023-05-07T13:56:58.219Z,21.54
2023-05-07T13:59:24.649Z,21.52
2023-05-07T14:01:51.173Z,21.53
2023-05-07T14:04:17.565Z,21.53
2023-05-07T14:06:44.045Z,21.50
2023-05-07T14:09:13.148Z,21.49
2023-05-07T14:11:40.733Z,21.46
2023-05-07T14:14:07.247Z,21.42
2023-05-07T14:16:33.728Z,21.39
2023-05-07T14:19:00.288Z,21.35
2023-05-07T14:21:26.766Z,21.31
2023-05-07T14:23:53.253Z,21.28
2023-05-07T14:26:20.226Z,21.25
2023-05-07T14:28:47.366Z,21.23
2023-05-07T14:31:14.391Z,21.22
2023-05-07T14:33:42.113Z,21.16
2023-05-07T14:36:09.040Z,21.13
2023-05-07T14:38:35.687Z,21.08
2023-05-07T14:41:02.212Z,21.05
2023-05-07T14:43:28.655Z,21.05
2023-05-07T14:45:55.155Z,21.05
2023-05-07T14:48:21.727Z,21.02
2023-05-07T14:50:49.347Z,21.02
2023-05-07T14:53:16.659Z,21.04
2023-05-07T14:55:43.245Z,21.08
2023-05-07T14:58:09.802Z,21.06
2023-05-07T15:00:36.264Z,21.03
2023-05-07T15:03:08.210Z,21.04
2023-05-07T15:05:35.345Z,21.04
2023-05-07T15:08:01.863Z,21.03
2023-05-07T15:10:28.409Z,21.05
2023-05-07T15:12:55.057Z,21.04
2023-05-07T15:15:21.810Z,20.99
2023-05-07T15:17:48.332Z,20.92
2023-05-07T15:20:14.880Z,20.86
2023-05-07T15:22:42.644Z,20.83
2023-05-07T15:25:10.661Z,20.83
2023-05-07T15:27:37.314Z,20.82
2023-05-07T15:30:04.208Z,20.83
2023-05-07T15:32:32.166Z,20.76
2023-05-07T15:34:58.657Z,20.51
2023-05-07T15:37:25.296Z,20.06
2023-05-07T15:39:51.814Z,19.56
2023-05-07T15:42:18.232Z,19.22
2023-05-07T15:44:44.690Z,18.98
2023-05-07T15:47:11.213Z,18.80
2023-05-07T15:49:37.629Z,18.69
2023-05-07T15:52:04.167Z,18.58
2023-05-07T15:54:31.085Z,18.44
2023-05-07T15:56:57.556Z,18.32
2023-05-07T15:59:24.145Z,18.20
2023-05-07T16:01:51.295Z,18.08
2023-05-07T16:04:17.806Z,17.92
2023-05-07T16:06:47.228Z,17.78
2023-05-07T16:09:14.334Z,17.66
2023-05-07T16:11:40.841Z,17.59
2023-05-07T16:14:07.293Z,17.51
2023-05-07T16:16:35.230Z,17.43
2023-05-07T16:19:01.714Z,17.36
2023-05-07T16:21:28.356Z,17.31
2023-05-07T16:23:54.833Z,17.20
2023-05-07T16:26:21.283Z,17.06
2023-05-07T16:28:48.060Z,16.95
2023-05-07T16:31:14.832Z,16.87
2023-05-07T16:33:41.317Z,16.78
2023-05-07T16:36:07.922Z,16.71
2023-05-07T16:38:34.771Z,16.65
2023-05-07T16:41:01.650Z,16.55
2023-05-07T16:43:28.272Z,16.45
2023-05-07T16:45:54.805Z,16.34
2023-05-07T16:48:21.447Z,16.28
2023-05-07T16:50:47.953Z,16.20
2023-05-07T16:53:14.698Z,16.09
2023-05-07T16:55:41.593Z,16.04
2023-05-07T16:58:10.184Z,15.97
2023-05-07T17:00:48.984Z,15.89
2023-05-07T17:03:17.014Z,15.87
2023-05-07T17:05:43.591Z,15.81
2023-05-07T17:08:10.011Z,15.72
2023-05-07T17:10:36.452Z,15.68
2023-05-07T17:13:02.910Z,15.58
2023-05-07T17:15:29.381Z,15.55
2023-05-07T17:17:56.150Z,15.47
2023-05-07T17:20:22.948Z,15.46
2023-05-07T17:22:49.366Z,15.41
2023-05-07T17:25:15.945Z,15.36
2023-05-07T17:27:42.329Z,15.32
2023-05-07T17:30:09.414Z,15.31
2023-05-07T17:32:36.073Z,15.29
2023-05-07T17:35:03.256Z,15.26
2023-05-07T17:37:29.658Z,15.27
2023-05-07T17:39:56.220Z,15.28
2023-05-07T17:42:22.720Z,15.27
2023-05-07T17:44:49.221Z,15.33
2023-05-07T17:47:15.730Z,15.37
2023-05-07T17:49:42.375Z,15.38
2023-05-07T17:52:09.024Z,15.40
2023-05-07T17:54:35.564Z,15.42
2023-05-07T17:57:02.057Z,15.32
2023-05-07T17:59:28.742Z,15.30
2023-05-07T18:01:55.360Z,15.32
2023-05-07T18:04:21.981Z,15.33
2023-05-07T18:06:48.498Z,15.32
2023-05-07T18:09:15.213Z,15.26
2023-05-07T18:11:41.691Z,15.18
2023-05-07T18:14:08.138Z,15.06
2023-05-07T18:16:34.815Z,14.97
2023-05-07T18:19:02.201Z,14.89
2023-05-07T18:21:28.756Z,14.81
2023-05-07T18:23:55.240Z,14.77
2023-05-07T18:26:21.632Z,14.74
2023-05-07T18:28:48.144Z,14.73
2023-05-07T18:31:14.632Z,14.67
2023-05-07T18:33:41.193Z,14.59
2023-05-07T18:36:07.655Z,14.57
2023-05-07T18:38:34.280Z,14.54
2023-05-07T18:41:05.291Z,14.53
2023-05-07T18:43:32.211Z,14.50
2023-05-07T18:45:58.709Z,14.48
2023-05-07T18:48:25.334Z,14.52
2023-05-07T18:50:51.935Z,14.55
2023-05-07T18:53:18.404Z,14.56
2023-05-07T18:55:52.357Z,14.52
2023-05-07T18:58:20.089Z,14.52
2023-05-07T19:00:50.064Z,14.45
2023-05-07T19:03:17.294Z,14.43
2023-05-07T19:05:44.967Z,14.54
2023-05-07T19:08:12.063Z,14.56
2023-05-07T19:10:38.823Z,14.57
2023-05-07T19:13:05.418Z,14.56
2023-05-07T19:15:31.991Z,14.56
2023-05-07T19:17:58.587Z,14.58
2023-05-07T19:20:25.245Z,14.60
2023-05-07T19:22:51.634Z,14.58
2023-05-07T19:25:18.512Z,14.57
2023-05-07T19:27:45.105Z,14.60
2023-05-07T19:30:11.809Z,14.57
2023-05-07T19:32:39.088Z,14.56
2023-05-07T19:35:05.885Z,14.54
2023-05-07T19:37:32.417Z,14.53
2023-05-07T19:40:04.566Z,14.53
2023-05-07T19:42:31.688Z,14.51
2023-05-07T19:44:58.174Z,14.51
2023-05-07T19:47:24.749Z,14.51
2023-05-07T19:49:51.187Z,14.52
2023-05-07T19:52:17.612Z,14.56
2023-05-07T19:54:44.050Z,14.58
2023-05-07T19:57:10.630Z,14.61
2023-05-07T19:59:37.072Z,14.63
2023-05-07T20:02:03.613Z,14.65
2023-05-07T20:04:33.005Z,14.71
2023-05-07T20:07:00.211Z,14.74
2023-05-07T20:09:26.651Z,14.75
2023-05-07T20:11:53.116Z,14.76
2023-05-07T20:14:19.506Z,14.82
2023-05-07T20:16:46.010Z,14.87
2023-05-07T20:19:12.466Z,14.85
2023-05-07T20:21:38.927Z,14.77
2023-05-07T20:24:06.513Z,14.69
2023-05-07T20:26:32.953Z,14.57
2023-05-07T20:28:59.374Z,14.43
2023-05-07T20:31:26.002Z,14.44
2023-05-07T20:33:52.689Z,14.42
2023-05-07T20:36:19.249Z,14.43
2023-05-07T20:38:45.861Z,14.42
2023-05-07T20:41:15.290Z,14.45
2023-05-07T20:43:41.962Z,14.47
2023-05-07T20:46:08.620Z,14.46
2023-05-07T20:48:35.568Z,14.50
2023-05-07T20:51:02.604Z,14.52
2023-05-07T20:53:32.363Z,14.57
2023-05-07T20:55:59.705Z,14.61
2023-05-07T20:58:28.690Z,14.61
2023-05-07T21:00:56.140Z,14.60
2023-05-07T21:03:24.011Z,14.57
2023-05-07T21:05:55.688Z,14.56
2023-05-07T21:08:22.513Z,14.58
2023-05-07T21:10:49.609Z,14.56
2023-05-07T21:13:16.248Z,14.58
2023-05-07T21:15:43.041Z,14.58
2023-05-07T21:18:10.383Z,14.61
2023-05-07T21:20:37.170Z,14.64
2023-05-07T21:23:04.020Z,14.59
2023-05-07T21:25:30.537Z,14.64
2023-05-07T21:27:57.402Z,14.63
2023-05-07T21:30:23.873Z,14.63
2023-05-07T21:32:50.467Z,14.62
2023-05-07T21:35:17.082Z,14.64
2023-05-07T21:37:43.515Z,14.65
2023-05-07T21:40:10.519Z,14.66
2023-05-07T21:42:37.158Z,14.68
2023-05-07T21:45:06.914Z,14.65
2023-05-07T21:47:33.422Z,14.64
2023-05-07T21:50:01.065Z,14.63
2023-05-07T21:52:27.612Z,14.62
2023-05-07T21:54:54.085Z,14.64
2023-05-07T21:57:21.132Z,14.66
2023-05-07T21:59:47.686Z,14.65
2023-05-07T22:02:14.174Z,14.63
2023-05-07T22:04:40.700Z,14.62
2023-05-07T22:07:07.181Z,14.58
2023-05-07T22:09:33.591Z,14.53
2023-05-07T22:12:00.011Z,14.51
2023-05-07T22:14:27.546Z,14.45
2023-05-07T22:16:54.039Z,14.46
2023-05-07T22:19:20.765Z,14.47
2023-05-07T22:21:47.214Z,14.44
2023-05-07T22:24:13.641Z,14.49
2023-05-07T22:26:40.135Z,14.49
2023-05-07T22:29:06.694Z,14.47
2023-05-07T22:31:33.228Z,14.48
2023-05-07T22:33:59.709Z,14.52
2023-05-07T22:36:26.492Z,14.54
2023-05-07T22:38:52.918Z,14.54
2023-05-07T22:41:19.401Z,14.56
2023-05-07T22:43:45.854Z,14.57
2023-05-07T22:46:12.354Z,14.59
2023-05-07T22:48:38.809Z,14.62
2023-05-07T22:51:05.233Z,14.64
2023-05-07T22:53:31.738Z,14.64
2023-05-07T22:55:58.333Z,14.62
2023-05-07T22:58:24.830Z,14.58
2023-05-07T23:00:51.289Z,14.55
2023-05-07T23:03:18.005Z,14.57
2023-05-07T23:05:44.756Z,14.55
2023-05-07T23:08:11.410Z,14.52
2023-05-07T23:10:37.893Z,14.50
2023-05-07T23:13:04.687Z,14.53
2023-05-07T23:15:33.181Z,14.54
2023-05-07T23:18:00.188Z,14.58
2023-05-07T23:20:26.811Z,14.58
2023-05-07T23:22:53.265Z,14.60
2023-05-07T23:25:19.855Z,14.62
2023-05-07T23:27:46.903Z,14.64
2023-05-07T23:30:13.905Z,14.64
2023-05-07T23:32:40.536Z,14.64
2023-05-07T23:35:08.093Z,14.63
2023-05-07T23:37:34.945Z,14.66
2023-05-07T23:40:01.332Z,14.70
2023-05-07T23:42:27.741Z,14.73
2023-05-07T23:44:54.207Z,14.75
2023-05-07T23:47:21.481Z,14.76
2023-05-07T23:49:48.122Z,14.77
2023-05-07T23:52:14.579Z,14.79
2023-05-07T23:54:41.015Z,14.81
2023-05-07T23:57:07.628Z,14.81
2023-05-07T23:59:34.049Z,14.82
